METAR Data
IDs: Format: Raw Decoded Include TAF

Data at: 1634 UTC 18 Feb 2019

METAR for:KVTI (Vinton/Veterans Mem, IA, US)
Text:KVTI 181615Z AUTO 28007KT 10SM CLR M09/M13 A3041 RMK AO2 T10951131
Temperature: -9.5°C ( 15°F)
Dewpoint:-13.1°C ( 8°F) [RH = 75%]
Pressure (altimeter):30.41 inches Hg (1029.9 mb)
Winds:from the W (280 degrees) at 8 MPH (7 knots; 3.6 m/s)
Visibility:10 or more sm (16+ km)
Ceiling:at least 12,000 feet AGL
Clouds:sky clear below 12,000 feet AGL
QC Flag:automated observation with no human augmentation